createdAt,value
2023-03-06T00:00:39.716Z,99614.00
2023-03-06T00:01:41.232Z,99613.41
2023-03-06T00:02:43.919Z,99618.53
2023-03-06T00:03:45.453Z,99617.59
2023-03-06T00:04:48.079Z,99613.88
2023-03-06T00:05:50.019Z,99610.38
2023-03-06T00:06:52.789Z,99609.81
2023-03-06T00:07:54.506Z,99618.13
2023-03-06T00:08:56.951Z,99613.94
2023-03-06T00:09:58.417Z,99611.97
2023-03-06T00:11:00.987Z,99606.03
2023-03-06T00:12:02.504Z,99608.41
2023-03-06T00:13:07.158Z,99605.25
2023-03-06T00:14:08.706Z,99609.63
2023-03-06T00:15:12.824Z,99605.03
2023-03-06T00:16:15.686Z,99606.66
2023-03-06T00:17:18.195Z,99602.66
2023-03-06T00:18:19.678Z,99597.78
2023-03-06T00:19:22.132Z,99594.25
2023-03-06T00:20:24.409Z,99598.41
2023-03-06T00:21:26.887Z,99591.00
2023-03-06T00:22:28.578Z,99598.00
2023-03-06T00:23:31.029Z,99594.34
2023-03-06T00:24:32.565Z,99592.50
2023-03-06T00:25:38.693Z,99593.47
2023-03-06T00:26:41.297Z,99593.66
2023-03-06T00:27:44.231Z,99595.94
2023-03-06T00:28:45.844Z,99589.84
2023-03-06T00:29:49.172Z,99592.91
2023-03-06T00:30:50.768Z,99592.53
2023-03-06T00:31:54.601Z,99596.72
2023-03-06T00:32:56.075Z,99602.44
2023-03-06T00:33:58.562Z,99593.63
2023-03-06T00:35:00.094Z,99593.56
2023-03-06T00:36:05.399Z,99585.72
2023-03-06T00:37:06.983Z,99583.88
2023-03-06T00:38:12.021Z,99584.56
2023-03-06T00:39:13.560Z,99578.16
2023-03-06T00:40:19.829Z,99576.28
2023-03-06T00:41:21.840Z,99578.13
2023-03-06T00:42:24.309Z,99575.91
2023-03-06T00:43:25.954Z,99581.53
2023-03-06T00:44:28.420Z,99582.22
2023-03-06T00:45:31.340Z,99578.66
2023-03-06T00:46:33.803Z,99576.66
2023-03-06T00:47:37.246Z,99576.97
2023-03-06T00:48:39.789Z,99572.03
2023-03-06T00:49:41.518Z,99570.22
2023-03-06T00:50:43.962Z,99573.25
2023-03-06T00:51:45.544Z,99576.88
2023-03-06T00:52:48.203Z,99566.44
2023-03-06T00:53:49.827Z,99566.81
2023-03-06T00:54:52.486Z,99564.06
2023-03-06T00:55:54.030Z,99558.91
2023-03-06T00:56:56.504Z,99569.75
2023-03-06T00:57:58.031Z,99565.47
2023-03-06T00:59:00.476Z,99569.44
2023-03-06T01:00:02.229Z,99568.72
2023-03-06T01:01:05.056Z,99566.94
2023-03-06T01:02:06.755Z,99566.25
2023-03-06T01:03:10.909Z,99562.59
2023-03-06T01:04:12.578Z,99565.97
2023-03-06T01:05:15.506Z,99557.91
2023-03-06T01:06:17.454Z,99556.19
2023-03-06T01:07:20.083Z,99557.97
2023-03-06T01:08:21.639Z,99553.94
2023-03-06T01:09:24.297Z,99559.41
2023-03-06T01:10:27.247Z,99550.84
2023-03-06T01:11:29.798Z,99553.06
2023-03-06T01:12:31.330Z,99548.25
2023-03-06T01:13:33.888Z,99547.69
2023-03-06T01:14:35.671Z,99558.53
2023-03-06T01:15:38.546Z,99545.00
2023-03-06T01:16:40.143Z,99539.28
2023-03-06T01:17:42.887Z,99540.13
2023-03-06T01:18:46.390Z,99545.28
2023-03-06T01:19:48.897Z,99543.50
2023-03-06T01:20:50.412Z,99546.44
2023-03-06T01:21:52.921Z,99541.59
2023-03-06T01:22:55.518Z,99534.09
2023-03-06T01:23:58.054Z,99538.75
2023-03-06T01:24:59.713Z,99545.28
2023-03-06T01:26:02.241Z,99539.88
2023-03-06T01:27:03.853Z,99539.06
2023-03-06T01:28:06.291Z,99533.94
2023-03-06T01:29:07.792Z,99529.44
2023-03-06T01:30:11.715Z,99534.81
2023-03-06T01:31:13.712Z,99536.81
2023-03-06T01:32:16.355Z,99532.19
2023-03-06T01:33:17.929Z,99522.56
2023-03-06T01:34:21.716Z,99528.03
2023-03-06T01:35:23.257Z,99533.25
2023-03-06T01:36:25.708Z,99532.50
2023-03-06T01:37:27.245Z,99527.84
2023-03-06T01:38:29.704Z,99528.63
2023-03-06T01:39:31.586Z,99524.97
2023-03-06T01:40:35.101Z,99527.19
2023-03-06T01:41:37.362Z,99523.09
2023-03-06T01:42:39.847Z,99531.66
2023-03-06T01:43:44.152Z,99519.50
2023-03-06T01:45:00.355Z,99517.13
2023-03-06T01:46:23.281Z,99519.66
2023-03-06T01:47:25.911Z,99516.16
2023-03-06T01:48:27.490Z,99523.09
2023-03-06T01:49:35.794Z,99520.19
2023-03-06T01:50:37.391Z,99520.50
2023-03-06T01:51:42.272Z,99526.06
2023-03-06T01:52:49.927Z,99516.66
2023-03-06T01:53:54.291Z,99515.97
2023-03-06T01:55:00.261Z,99511.34
2023-03-06T01:56:02.725Z,99515.53
2023-03-06T01:57:09.292Z,99513.63
2023-03-06T01:58:17.535Z,99515.31
2023-03-06T01:59:21.538Z,99507.53
2023-03-06T02:00:26.774Z,99498.91
2023-03-06T02:01:29.758Z,99503.53
2023-03-06T02:02:32.366Z,99496.00
2023-03-06T02:03:33.900Z,99494.66
2023-03-06T02:04:40.062Z,99492.47
2023-03-06T02:05:42.861Z,99502.47
2023-03-06T02:06:45.459Z,99497.69
2023-03-06T02:07:47.910Z,99500.97
2023-03-06T02:08:53.108Z,99492.69
2023-03-06T02:09:54.662Z,99491.75
2023-03-06T02:11:02.616Z,99497.31
2023-03-06T02:12:09.387Z,99484.97
2023-03-06T02:13:11.842Z,99481.16
2023-03-06T02:14:16.181Z,99489.88
2023-03-06T02:15:21.576Z,99488.94
2023-03-06T02:16:26.566Z,99487.25
2023-03-06T02:17:30.112Z,99495.69
2023-03-06T02:18:33.273Z,99496.75
2023-03-06T02:19:52.773Z,99495.34
2023-03-06T02:20:57.349Z,99489.50
2023-03-06T02:22:00.763Z,99487.75
2023-03-06T02:23:06.948Z,99488.59
2023-03-06T02:24:19.797Z,99481.06
2023-03-06T02:25:44.858Z,99480.50
2023-03-06T02:26:48.637Z,99480.16
2023-03-06T02:27:50.157Z,99479.94
2023-03-06T02:28:52.633Z,99487.81
2023-03-06T02:29:54.170Z,99488.97
2023-03-06T02:30:57.876Z,99484.44
2023-03-06T02:31:59.524Z,99491.66
2023-03-06T02:33:02.405Z,99489.69
2023-03-06T02:34:07.846Z,99491.09
2023-03-06T02:35:19.983Z,99485.16
2023-03-06T02:36:21.552Z,99486.53
2023-03-06T02:37:25.989Z,99485.31
2023-03-06T02:38:29.528Z,99485.25
2023-03-06T02:39:35.088Z,99480.75
2023-03-06T02:40:37.012Z,99477.06
2023-03-06T02:41:41.182Z,99482.44
2023-03-06T02:42:46.312Z,99482.47
2023-03-06T02:43:51.345Z,99482.53
2023-03-06T02:44:54.271Z,99473.22
2023-03-06T02:45:56.804Z,99473.81
2023-03-06T02:46:58.426Z,99476.97
2023-03-06T02:48:00.928Z,99472.16
2023-03-06T02:49:02.453Z,99469.44
2023-03-06T02:50:05.389Z,99469.06
2023-03-06T02:51:06.910Z,99465.63
2023-03-06T02:52:10.288Z,99464.66
2023-03-06T02:53:14.336Z,99459.25
2023-03-06T02:54:18.265Z,99461.88
2023-03-06T02:55:19.804Z,99461.84
2023-03-06T02:56:22.650Z,99460.78
2023-03-06T02:57:25.455Z,99459.94
2023-03-06T02:58:27.903Z,99449.75
2023-03-06T02:59:29.391Z,99458.34
2023-03-06T03:00:32.413Z,99451.53
2023-03-06T03:01:33.945Z,99449.69
2023-03-06T03:02:36.540Z,99451.34
2023-03-06T03:03:38.142Z,99454.03
2023-03-06T03:04:40.614Z,99448.28
2023-03-06T03:05:42.223Z,99448.25
2023-03-06T03:06:44.669Z,99451.03
2023-03-06T03:07:46.260Z,99444.09
2023-03-06T03:08:48.689Z,99440.00
2023-03-06T03:09:50.302Z,99445.31
2023-03-06T03:10:53.145Z,99437.72
2023-03-06T03:11:54.815Z,99443.50
2023-03-06T03:12:58.773Z,99439.75
2023-03-06T03:14:00.261Z,99446.28
2023-03-06T03:15:02.777Z,99446.28
2023-03-06T03:16:06.521Z,99447.94
2023-03-06T03:17:08.988Z,99442.19
2023-03-06T03:18:11.140Z,99436.31
2023-03-06T03:19:13.747Z,99436.09
2023-03-06T03:20:17.757Z,99429.72
2023-03-06T03:21:20.350Z,99437.22
2023-03-06T03:22:22.268Z,99428.25
2023-03-06T03:23:25.502Z,99426.25
2023-03-06T03:24:27.084Z,99432.13
2023-03-06T03:25:29.597Z,99430.97
2023-03-06T03:26:31.477Z,99430.72
2023-03-06T03:27:34.341Z,99431.88
2023-03-06T03:28:37.312Z,99426.97
2023-03-06T03:29:39.826Z,99420.81
2023-03-06T03:30:41.640Z,99420.91
2023-03-06T03:31:44.206Z,99425.44
2023-03-06T03:32:45.838Z,99425.53
2023-03-06T03:33:48.277Z,99419.44
2023-03-06T03:34:49.845Z,99416.69
2023-03-06T03:35:57.931Z,99423.41
2023-03-06T03:36:59.449Z,99418.88
2023-03-06T03:38:01.984Z,99412.00
2023-03-06T03:39:04.225Z,99415.31
2023-03-06T03:40:08.077Z,99413.47
2023-03-06T03:41:09.577Z,99423.25
2023-03-06T03:42:12.089Z,99421.69
2023-03-06T03:43:13.856Z,99419.50
2023-03-06T03:44:17.730Z,99420.19
2023-03-06T03:45:19.594Z,99418.56
2023-03-06T03:46:22.712Z,99418.56
2023-03-06T03:47:24.251Z,99420.28
2023-03-06T03:48:26.725Z,99418.81
2023-03-06T03:49:28.378Z,99419.91
2023-03-06T03:50:30.831Z,99425.22
2023-03-06T03:51:32.964Z,99418.88
2023-03-06T03:52:35.439Z,99419.13
2023-03-06T03:53:37.003Z,99420.34
2023-03-06T03:54:39.476Z,99413.97
2023-03-06T03:55:40.942Z,99418.84
2023-03-06T03:56:44.533Z,99418.06
2023-03-06T03:57:46.253Z,99410.41
2023-03-06T03:58:49.042Z,99417.50
2023-03-06T03:59:52.173Z,99411.28
2023-03-06T04:00:54.619Z,99403.69
2023-03-06T04:01:56.636Z,99408.81
2023-03-06T04:02:59.177Z,99409.47
2023-03-06T04:04:00.730Z,99415.03
2023-03-06T04:05:05.029Z,99399.03
2023-03-06T04:06:07.269Z,99404.28
2023-03-06T04:07:10.938Z,99395.22
2023-03-06T04:08:12.643Z,99401.28
2023-03-06T04:09:15.355Z,99392.94
2023-03-06T04:10:17.030Z,99402.38
2023-03-06T04:11:19.530Z,99398.75
2023-03-06T04:12:21.015Z,99394.38
2023-03-06T04:13:23.547Z,99398.28
2023-03-06T04:14:25.958Z,99397.44
2023-03-06T04:15:28.864Z,99389.47
2023-03-06T04:16:31.528Z,99384.44
2023-03-06T04:17:34.125Z,99382.31
2023-03-06T04:18:36.617Z,99387.75
2023-03-06T04:19:38.087Z,99381.78
2023-03-06T04:20:40.543Z,99386.44
2023-03-06T04:21:42.009Z,99385.97
2023-03-06T04:22:44.480Z,99383.22
2023-03-06T04:23:46.911Z,99382.31
2023-03-06T04:24:49.826Z,99376.94
2023-03-06T04:25:52.386Z,99376.31
2023-03-06T04:26:53.913Z,99377.53
2023-03-06T04:27:56.350Z,99369.88
2023-03-06T04:28:58.503Z,99365.31
2023-03-06T04:30:01.263Z,99373.78
2023-03-06T04:31:04.259Z,99371.16
2023-03-06T04:32:07.507Z,99367.38
2023-03-06T04:33:09.414Z,99364.88
2023-03-06T04:34:11.817Z,99365.66
2023-03-06T04:35:13.345Z,99357.31
2023-03-06T04:36:26.258Z,99363.00
2023-03-06T04:37:28.296Z,99361.06
2023-03-06T04:38:30.967Z,99360.00
2023-03-06T04:39:32.557Z,99362.53
2023-03-06T04:40:37.068Z,99362.09
2023-03-06T04:41:38.892Z,99359.78
2023-03-06T04:42:41.455Z,99363.09
2023-03-06T04:43:43.036Z,99367.22
2023-03-06T04:44:45.963Z,99356.69
2023-03-06T04:45:47.880Z,99361.88
2023-03-06T04:46:51.657Z,99356.34
2023-03-06T04:47:53.256Z,99358.66
2023-03-06T04:48:55.780Z,99360.66
2023-03-06T04:49:57.297Z,99357.66
2023-03-06T04:50:59.807Z,99352.41
2023-03-06T04:52:01.369Z,99354.56
2023-03-06T04:53:04.706Z,99351.59
2023-03-06T04:54:06.441Z,99352.41
2023-03-06T04:55:10.262Z,99350.78
2023-03-06T04:56:11.847Z,99353.47
2023-03-06T04:57:14.407Z,99351.50
2023-03-06T04:58:15.850Z,99342.97
2023-03-06T04:59:18.427Z,99341.81
2023-03-06T05:00:21.629Z,99337.91
2023-03-06T05:01:24.137Z,99341.91
2023-03-06T05:02:27.085Z,99338.72
2023-03-06T05:03:29.625Z,99328.00
2023-03-06T05:04:31.064Z,99339.38
2023-03-06T05:05:33.531Z,99334.56
2023-03-06T05:06:35.029Z,99331.84
2023-03-06T05:07:37.621Z,99338.16
2023-03-06T05:08:39.167Z,99336.44
2023-03-06T05:09:41.634Z,99334.56
2023-03-06T05:10:44.369Z,99330.66
2023-03-06T05:11:46.835Z,99326.41
2023-03-06T05:12:48.362Z,99321.13
2023-03-06T05:13:51.529Z,99318.34
2023-03-06T05:14:53.004Z,99321.34
2023-03-06T05:15:55.821Z,99315.97
2023-03-06T05:16:57.535Z,99323.63
2023-03-06T05:18:01.403Z,99318.81
2023-03-06T05:19:02.888Z,99321.69
2023-03-06T05:20:07.034Z,99318.16
2023-03-06T05:21:09.886Z,99316.38
2023-03-06T05:22:11.429Z,99310.13
2023-03-06T05:23:14.144Z,99317.03
2023-03-06T05:24:15.828Z,99313.88
2023-03-06T05:25:18.563Z,99314.34
2023-03-06T05:26:20.119Z,99315.84
2023-03-06T05:27:22.661Z,99317.78
2023-03-06T05:28:24.238Z,99314.53
2023-03-06T05:29:26.678Z,99320.28
2023-03-06T05:30:28.415Z,99314.84
2023-03-06T05:31:31.103Z,99312.63
2023-03-06T05:32:35.374Z,99316.81
2023-03-06T05:33:39.537Z,99318.03
2023-03-06T05:34:41.284Z,99320.66
2023-03-06T05:35:47.401Z,99308.56
2023-03-06T05:36:48.918Z,99311.88
2023-03-06T05:37:51.749Z,99318.28
2023-03-06T05:38:53.526Z,99304.59
2023-03-06T05:39:56.044Z,99314.38
2023-03-06T05:40:57.584Z,99314.47
2023-03-06T05:41:59.994Z,99314.00
2023-03-06T05:43:02.430Z,99313.44
2023-03-06T05:44:03.969Z,99314.56
2023-03-06T05:45:07.375Z,99310.97
2023-03-06T05:46:10.751Z,99311.81
2023-03-06T05:47:13.507Z,99311.69
2023-03-06T05:48:14.985Z,99317.66
2023-03-06T05:49:18.770Z,99310.94
2023-03-06T05:50:20.574Z,99314.59
2023-03-06T05:51:23.100Z,99314.94
2023-03-06T05:52:25.007Z,99321.78
2023-03-06T05:53:28.013Z,99313.47
2023-03-06T05:54:29.729Z,99317.06
2023-03-06T05:55:32.737Z,99308.38
2023-03-06T05:56:34.245Z,99310.16
2023-03-06T05:57:36.684Z,99314.88
2023-03-06T05:58:38.220Z,99313.50
2023-03-06T05:59:40.622Z,99315.00
2023-03-06T06:00:42.102Z,99309.63
2023-03-06T06:01:45.267Z,99325.09
2023-03-06T06:02:47.200Z,99311.34
2023-03-06T06:03:49.745Z,99324.19
2023-03-06T06:04:52.574Z,99318.81
2023-03-06T06:05:55.011Z,99320.63
2023-03-06T06:06:57.947Z,99321.88
2023-03-06T06:08:01.063Z,99321.50
2023-03-06T06:09:02.708Z,99323.19
2023-03-06T06:10:06.594Z,99319.22
2023-03-06T06:11:10.749Z,99317.91
2023-03-06T06:12:13.463Z,99323.75
2023-03-06T06:13:15.914Z,99318.00
2023-03-06T06:14:17.414Z,99318.88
2023-03-06T06:15:19.821Z,99325.28
2023-03-06T06:16:21.323Z,99327.19
2023-03-06T06:17:23.831Z,99330.75
2023-03-06T06:18:25.449Z,99322.03
2023-03-06T06:19:29.785Z,99330.69
2023-03-06T06:20:32.907Z,99327.69
2023-03-06T06:21:35.396Z,99324.81
2023-03-06T06:22:37.912Z,99323.72
2023-03-06T06:23:40.373Z,99326.03
2023-03-06T06:24:42.347Z,99318.09
2023-03-06T06:25:45.380Z,99314.47
2023-03-06T06:26:47.259Z,99316.16
2023-03-06T06:27:49.708Z,99315.97
2023-03-06T06:28:51.267Z,99318.25
2023-03-06T06:29:53.718Z,99315.53
2023-03-06T06:30:55.326Z,99311.75
2023-03-06T06:31:58.792Z,99311.59
2023-03-06T06:33:00.453Z,99313.38
2023-03-06T06:34:02.906Z,99302.47
2023-03-06T06:35:06.435Z,99311.53
2023-03-06T06:36:17.864Z,99313.97
2023-03-06T06:37:20.282Z,99317.31
2023-03-06T06:38:21.781Z,99313.47
2023-03-06T06:39:25.084Z,99311.91
2023-03-06T06:40:28.176Z,99310.34
2023-03-06T06:42:53.392Z,99312.72
2023-03-06T06:43:55.737Z,99308.66
2023-03-06T06:44:59.227Z,99306.69
2023-03-06T06:46:24.567Z,99311.66
2023-03-06T06:47:25.381Z,99314.22
2023-03-06T06:48:27.161Z,99308.19
2023-03-06T06:49:29.611Z,99312.75
2023-03-06T06:50:32.059Z,99314.25
2023-03-06T06:51:34.910Z,99310.25
2023-03-06T06:52:37.421Z,99312.44
2023-03-06T06:53:38.901Z,99314.81
2023-03-06T06:54:41.336Z,99314.19
2023-03-06T06:55:43.224Z,99314.59
2023-03-06T06:56:45.613Z,99312.50
2023-03-06T06:57:47.146Z,99318.66
2023-03-06T06:58:49.571Z,99315.38
2023-03-06T06:59:53.948Z,99317.72
2023-03-06T07:00:55.658Z,99318.88
2023-03-06T07:01:58.136Z,99312.50
2023-03-06T07:02:59.611Z,99315.34
2023-03-06T07:04:02.258Z,99320.81
2023-03-06T07:05:05.641Z,99316.06
2023-03-06T07:06:08.432Z,99313.47
2023-03-06T07:07:14.903Z,99323.16
2023-03-06T07:08:16.383Z,99313.09
2023-03-06T07:09:20.050Z,99319.41
2023-03-06T07:10:21.695Z,99310.53
2023-03-06T07:11:24.188Z,99320.00
2023-03-06T07:12:25.717Z,99315.44
2023-03-06T07:13:28.165Z,99316.00
2023-03-06T07:14:30.655Z,99317.69
2023-03-06T07:15:33.637Z,99317.41
2023-03-06T07:16:35.244Z,99317.69
2023-03-06T07:17:37.742Z,99313.63
2023-03-06T07:18:39.447Z,99317.97
2023-03-06T07:19:41.933Z,99314.41
2023-03-06T07:20:43.450Z,99321.09
2023-03-06T07:21:45.910Z,99321.19
2023-03-06T07:22:51.861Z,99325.72
2023-03-06T07:23:57.391Z,99327.00
2023-03-06T07:24:59.323Z,99317.47
2023-03-06T07:26:02.483Z,99323.69
2023-03-06T07:27:04.968Z,99316.47
2023-03-06T07:28:06.697Z,99324.38
2023-03-06T07:29:09.194Z,99327.88
2023-03-06T07:30:12.946Z,99323.06
2023-03-06T07:31:15.426Z,99316.63
2023-03-06T07:32:17.075Z,99322.03
2023-03-06T07:33:19.900Z,99313.13
2023-03-06T07:34:22.488Z,99320.28
2023-03-06T07:35:25.898Z,99318.50
2023-03-06T07:36:28.342Z,99317.00
2023-03-06T07:37:29.841Z,99319.75
2023-03-06T07:38:33.925Z,99323.03
2023-03-06T07:39:35.426Z,99319.00
2023-03-06T07:40:38.806Z,99322.00
2023-03-06T07:41:41.272Z,99321.47
2023-03-06T07:42:43.004Z,99327.44
2023-03-06T07:43:46.769Z,99319.88
2023-03-06T07:44:48.331Z,99322.34
2023-03-06T07:45:57.468Z,99323.69
2023-03-06T07:46:59.871Z,99319.38
2023-03-06T07:48:01.381Z,99330.41
2023-03-06T07:49:03.886Z,99324.75
2023-03-06T07:50:07.343Z,99322.31
2023-03-06T07:51:14.953Z,99326.09
2023-03-06T07:52:17.182Z,99323.16
2023-03-06T07:53:22.501Z,99331.53
2023-03-06T07:54:26.418Z,99319.34
2023-03-06T07:55:27.997Z,99327.44
2023-03-06T07:56:30.540Z,99324.50
2023-03-06T07:57:32.287Z,99322.63
2023-03-06T07:58:34.862Z,99323.94
2023-03-06T07:59:36.424Z,99324.22
2023-03-06T08:00:38.833Z,99324.22
2023-03-06T08:01:41.248Z,99325.81
2023-03-06T08:02:44.171Z,99329.31
2023-03-06T08:03:46.402Z,99324.50
2023-03-06T08:04:53.613Z,99322.88
2023-03-06T08:05:55.152Z,99321.81
2023-03-06T08:07:00.148Z,99320.16
2023-03-06T08:08:01.874Z,99318.25
2023-03-06T08:09:04.800Z,99314.75
2023-03-06T08:10:08.526Z,99321.78
2023-03-06T08:11:12.416Z,99315.28
2023-03-06T08:12:15.705Z,99325.03
2023-03-06T08:13:18.708Z,99324.66
2023-03-06T08:14:20.271Z,99323.38
2023-03-06T08:15:22.809Z,99318.22
2023-03-06T08:16:27.691Z,99323.69
2023-03-06T08:17:30.188Z,99322.00
2023-03-06T08:18:32.371Z,99316.09
2023-03-06T08:19:35.151Z,99311.34
2023-03-06T08:20:36.697Z,99322.00
2023-03-06T08:21:39.218Z,99318.97
2023-03-06T08:22:42.021Z,99320.97
2023-03-06T08:23:45.576Z,99325.59
2023-03-06T08:24:48.188Z,99319.91
2023-03-06T08:25:57.953Z,99319.28
2023-03-06T08:26:59.823Z,99324.25
2023-03-06T08:28:02.290Z,99318.94
2023-03-06T08:29:04.664Z,99317.38
2023-03-06T08:30:08.219Z,99321.16
2023-03-06T08:31:11.384Z,99313.31
2023-03-06T08:32:13.937Z,99322.25
2023-03-06T08:33:15.477Z,99325.97
2023-03-06T08:34:20.290Z,99322.41
2023-03-06T08:35:23.114Z,99314.47
2023-03-06T08:36:25.194Z,99327.88
2023-03-06T08:37:27.673Z,99323.69
2023-03-06T08:38:30.488Z,99316.44
2023-03-06T08:39:32.467Z,99318.47
2023-03-06T08:40:35.096Z,99320.66
2023-03-06T08:41:38.238Z,99316.88
2023-03-06T08:42:40.822Z,99323.66
2023-03-06T08:43:43.093Z,99320.44
2023-03-06T08:44:46.028Z,99324.19
2023-03-06T08:45:52.117Z,99319.03
2023-03-06T08:46:54.910Z,99320.63
2023-03-06T08:47:57.982Z,99321.19
2023-03-06T08:48:59.721Z,99321.22
2023-03-06T08:50:03.028Z,99321.25
2023-03-06T08:51:05.357Z,99310.44
2023-03-06T08:52:08.618Z,99309.63
2023-03-06T08:53:10.718Z,99310.72
2023-03-06T08:54:14.016Z,99320.44
2023-03-06T08:55:16.544Z,99308.53
2023-03-06T08:56:19.559Z,99320.47
2023-03-06T08:57:23.875Z,99316.66
2023-03-06T08:58:25.482Z,99319.31
2023-03-06T08:59:28.155Z,99313.13
2023-03-06T09:00:29.943Z,99318.56
2023-03-06T09:01:34.957Z,99318.03
2023-03-06T09:02:38.079Z,99317.19
2023-03-06T09:03:40.013Z,99312.88
2023-03-06T09:04:42.653Z,99312.59
2023-03-06T09:05:45.781Z,99324.72
2023-03-06T09:06:48.508Z,99325.31
2023-03-06T09:07:51.657Z,99330.44
2023-03-06T09:08:55.140Z,99325.56
2023-03-06T09:09:58.365Z,99335.03
2023-03-06T09:11:01.029Z,99335.31
2023-03-06T09:12:03.568Z,99334.50
2023-03-06T09:13:07.736Z,99333.09
2023-03-06T09:14:09.288Z,99343.38
2023-03-06T09:15:14.107Z,99327.16
2023-03-06T09:16:15.824Z,99327.97
2023-03-06T09:17:18.318Z,99329.50
2023-03-06T09:18:20.882Z,99328.75
2023-03-06T09:19:23.410Z,99331.75
2023-03-06T09:20:24.959Z,99335.78
2023-03-06T09:21:28.603Z,99331.97
2023-03-06T09:22:31.012Z,99326.03
2023-03-06T09:23:34.202Z,99326.91
2023-03-06T09:24:37.112Z,99327.44
2023-03-06T09:25:38.614Z,99332.06
2023-03-06T09:26:46.662Z,99330.72
2023-03-06T09:28:01.884Z,99322.84
2023-03-06T09:29:12.864Z,99331.25
2023-03-06T09:30:15.464Z,99329.88
2023-03-06T09:31:20.339Z,99336.41
2023-03-06T09:32:23.542Z,99328.81
2023-03-06T09:33:25.564Z,99327.19
2023-03-06T09:34:28.466Z,99326.94
2023-03-06T09:35:30.079Z,99331.78
2023-03-06T09:36:42.697Z,99321.47
2023-03-06T09:37:52.124Z,99333.38
2023-03-06T09:38:53.650Z,99330.16
2023-03-06T09:39:56.163Z,99324.78
2023-03-06T09:41:11.456Z,99337.69
2023-03-06T09:42:18.291Z,99328.72
2023-03-06T09:43:26.048Z,99327.97
2023-03-06T09:44:32.311Z,99324.19
2023-03-06T09:45:37.016Z,99335.25
2023-03-06T09:46:48.056Z,99330.44
2023-03-06T09:47:56.340Z,99334.22
2023-03-06T09:49:10.524Z,99321.50
2023-03-06T09:50:25.190Z,99322.59
2023-03-06T09:51:39.061Z,99325.03
2023-03-06T09:52:48.092Z,99329.34
2023-03-06T09:54:01.640Z,99324.72
2023-03-06T09:55:13.415Z,99326.63
2023-03-06T09:56:19.768Z,99330.16
2023-03-06T09:57:26.075Z,99324.75
2023-03-06T09:58:31.250Z,99318.84
2023-03-06T09:59:35.555Z,99320.47
2023-03-06T10:00:43.641Z,99327.22
2023-03-06T10:01:58.827Z,99325.28
2023-03-06T10:03:16.290Z,99326.91
2023-03-06T10:04:33.486Z,99330.06
2023-03-06T10:05:40.853Z,99326.25
2023-03-06T10:06:50.831Z,99324.06
2023-03-06T10:07:57.483Z,99325.47
2023-03-06T10:09:05.598Z,99320.38
2023-03-06T10:10:18.670Z,99319.84
2023-03-06T10:11:26.831Z,99316.09
2023-03-06T10:12:33.818Z,99310.16
2023-03-06T10:13:41.340Z,99326.13
2023-03-06T10:14:48.888Z,99323.13
2023-03-06T10:15:56.043Z,99322.56
2023-03-06T10:16:59.272Z,99316.34
2023-03-06T10:18:02.182Z,99319.88
2023-03-06T10:19:11.270Z,99324.47
2023-03-06T10:20:19.614Z,99330.13
2023-03-06T10:21:32.997Z,99327.97
2023-03-06T10:22:40.366Z,99313.94
2023-03-06T10:23:53.162Z,99322.59
2023-03-06T10:25:03.380Z,99311.50
2023-03-06T10:26:14.197Z,99309.66
2023-03-06T10:27:23.474Z,99306.66
2023-03-06T10:28:30.400Z,99313.69
2023-03-06T10:29:47.601Z,99305.31
2023-03-06T10:31:07.540Z,99307.47
2023-03-06T10:32:17.018Z,99294.47
2023-03-06T10:33:29.442Z,99293.66
2023-03-06T10:34:38.087Z,99298.78
2023-03-06T10:35:48.382Z,99303.97
2023-03-06T10:36:50.731Z,99302.09
2023-03-06T10:38:01.067Z,99307.19
2023-03-06T10:39:11.162Z,99304.50
2023-03-06T10:40:16.877Z,99299.91
2023-03-06T10:41:25.950Z,99298.84
2023-03-06T10:42:28.975Z,99295.31
2023-03-06T10:43:30.502Z,99291.28
2023-03-06T10:44:33.172Z,99286.38
2023-03-06T10:45:49.298Z,99296.63
2023-03-06T10:46:55.619Z,99295.25
2023-03-06T10:48:11.855Z,99292.47
2023-03-06T10:49:26.246Z,99292.75
2023-03-06T10:50:30.730Z,99286.66
2023-03-06T10:51:35.599Z,99292.88
2023-03-06T10:52:38.142Z,99285.69
2023-03-06T10:53:49.989Z,99285.38
2023-03-06T10:54:52.693Z,99291.59
2023-03-06T10:55:57.374Z,99290.53
2023-03-06T10:57:19.253Z,99294.41
2023-03-06T10:58:25.271Z,99296.00
2023-03-06T10:59:29.505Z,99287.19
2023-03-06T11:00:35.968Z,99293.19
2023-03-06T11:01:39.247Z,99290.56
2023-03-06T11:02:43.599Z,99295.75
2023-03-06T11:03:45.735Z,99298.94
2023-03-06T11:04:53.618Z,99289.22
2023-03-06T11:06:00.454Z,99294.69
2023-03-06T11:07:15.628Z,99279.47
2023-03-06T11:08:22.762Z,99289.22
2023-03-06T11:09:26.886Z,99286.22
2023-03-06T11:10:33.104Z,99287.25
2023-03-06T11:11:37.983Z,99300.25
2023-03-06T11:12:40.941Z,99295.72
2023-03-06T11:13:45.475Z,99278.41
2023-03-06T11:14:47.216Z,99298.22
2023-03-06T11:15:57.772Z,99298.53
2023-03-06T11:17:00.309Z,99287.44
2023-03-06T11:18:25.874Z,99284.94
2023-03-06T11:19:32.706Z,99282.47
2023-03-06T11:20:50.989Z,99284.63
2023-03-06T11:22:03.287Z,99284.31
2023-03-06T11:23:07.548Z,99292.97
2023-03-06T11:24:18.333Z,99294.63
2023-03-06T11:25:21.118Z,99288.47
2023-03-06T11:26:44.677Z,99283.44
2023-03-06T11:27:55.340Z,99281.81
2023-03-06T11:29:17.501Z,99279.03
2023-03-06T11:30:23.414Z,99283.06
2023-03-06T11:31:30.332Z,99273.97
2023-03-06T11:32:42.474Z,99281.03
2023-03-06T11:33:52.309Z,99273.47
2023-03-06T11:34:59.600Z,99271.22
2023-03-06T11:36:11.986Z,99282.34
2023-03-06T11:37:23.172Z,99275.31
2023-03-06T11:38:36.293Z,99270.16
2023-03-06T11:39:44.746Z,99270.13
2023-03-06T11:40:52.664Z,99273.81
2023-03-06T11:42:04.123Z,99263.22
2023-03-06T11:43:16.915Z,99268.25
2023-03-06T11:44:26.997Z,99262.06
2023-03-06T11:45:34.748Z,99254.66
2023-03-06T11:46:40.180Z,99253.97
2023-03-06T11:47:48.110Z,99261.38
2023-03-06T11:48:55.077Z,99253.13
2023-03-06T11:50:14.949Z,99253.09
2023-03-06T11:51:22.253Z,99240.91
2023-03-06T11:52:28.082Z,99249.06
2023-03-06T11:53:33.723Z,99238.84
2023-03-06T11:54:36.939Z,99244.03
2023-03-06T11:55:44.689Z,99246.38
2023-03-06T11:56:56.109Z,99240.97
2023-03-06T11:58:13.052Z,99240.16
2023-03-06T11:59:35.604Z,99234.13
2023-03-06T12:00:49.399Z,99249.84
2023-03-06T12:02:00.392Z,99247.03
2023-03-06T12:03:41.963Z,99241.56
2023-03-06T12:04:56.399Z,99245.59
2023-03-06T12:06:03.943Z,99236.44
2023-03-06T12:07:21.873Z,99243.25
2023-03-06T12:08:39.374Z,99238.91
2023-03-06T12:09:46.566Z,99245.81
2023-03-06T12:10:52.235Z,99239.41
2023-03-06T12:12:10.969Z,99236.13
2023-03-06T12:13:34.818Z,99232.88
2023-03-06T12:14:49.927Z,99228.94
2023-03-06T12:16:13.814Z,99224.41
2023-03-06T12:17:23.521Z,99216.63
2023-03-06T12:18:39.592Z,99226.19
2023-03-06T12:19:55.300Z,99217.13
2023-03-06T12:21:05.588Z,99213.06
2023-03-06T12:22:25.097Z,99220.28
2023-03-06T12:23:54.949Z,99210.47
2023-03-06T12:25:17.283Z,99225.91
2023-03-06T12:26:44.265Z,99215.31
2023-03-06T12:27:55.514Z,99224.38
2023-03-06T12:29:11.071Z,99217.84
2023-03-06T12:30:30.379Z,99213.63
2023-03-06T12:31:47.297Z,99218.66
2023-03-06T12:32:54.220Z,99211.50
2023-03-06T12:34:07.896Z,99214.75
2023-03-06T12:35:27.217Z,99210.19
2023-03-06T12:36:51.239Z,99225.09
2023-03-06T12:38:06.245Z,99226.22
2023-03-06T12:39:23.261Z,99217.91
2023-03-06T12:40:41.290Z,99219.78
2023-03-06T12:41:51.121Z,99211.22